sensor_id;sensor_type;location;lat;lon;timestamp;P1;durP1;ratioP1;P2;durP2;ratioP2
46282;SDS011;32017;43.700;11.820;2022-12-29T00:00:46;12.57;;;11.77;;
46282;SDS011;32017;43.700;11.820;2022-12-29T00:03:07;18.20;;;16.50;;
46282;SDS011;32017;43.700;11.820;2022-12-29T00:05:28;14.27;;;12.90;;
46282;SDS011;32017;43.700;11.820;2022-12-29T00:07:48;12.75;;;11.75;;
46282;SDS011;32017;43.700;11.820;2022-12-29T00:10:08;11.65;;;10.85;;
46282;SDS011;32017;43.700;11.820;2022-12-29T00:12:28;11.48;;;10.60;;
46282;SDS011;32017;43.700;11.820;2022-12-29T00:15:08;11.80;;;11.10;;
46282;SDS011;32017;43.700;11.820;2022-12-29T00:17:47;10.73;;;10.23;;
46282;SDS011;32017;43.700;11.820;2022-12-29T00:20:06;12.57;;;11.82;;
46282;SDS011;32017;43.700;11.820;2022-12-29T00:22:45;11.95;;;11.30;;
46282;SDS011;32017;43.700;11.820;2022-12-29T00:25:24;13.77;;;12.77;;
46282;SDS011;32017;43.700;11.820;2022-12-29T00:28:03;12.95;;;12.25;;
46282;SDS011;32017;43.700;11.820;2022-12-29T00:30:42;13.40;;;12.50;;
46282;SDS011;32017;43.700;11.820;2022-12-29T00:33:22;17.58;;;15.85;;
46282;SDS011;32017;43.700;11.820;2022-12-29T00:36:11;17.00;;;15.48;;
46282;SDS011;32017;43.700;11.820;2022-12-29T00:38:34;19.20;;;17.38;;
46282;SDS011;32017;43.700;11.820;2022-12-29T00:41:15;18.05;;;16.25;;
46282;SDS011;32017;43.700;11.820;2022-12-29T00:43:53;18.63;;;16.92;;
46282;SDS011;32017;43.700;11.820;2022-12-29T00:46:26;18.43;;;16.83;;
46282;SDS011;32017;43.700;11.820;2022-12-29T00:48:46;21.20;;;19.15;;
46282;SDS011;32017;43.700;11.820;2022-12-29T00:51:25;19.83;;;16.40;;
46282;SDS011;32017;43.700;11.820;2022-12-29T00:53:45;20.80;;;18.67;;
46282;SDS011;32017;43.700;11.820;2022-12-29T00:56:05;19.65;;;17.50;;
46282;SDS011;32017;43.700;11.820;2022-12-29T00:58:27;19.67;;;18.02;;
46282;SDS011;32017;43.700;11.820;2022-12-29T01:00:48;20.83;;;16.65;;
46282;SDS011;32017;43.700;11.820;2022-12-29T01:03:08;18.30;;;16.48;;
46282;SDS011;32017;43.700;11.820;2022-12-29T01:05:28;17.65;;;15.93;;
46282;SDS011;32017;43.700;11.820;2022-12-29T01:07:48;18.23;;;16.63;;
46282;SDS011;32017;43.700;11.820;2022-12-29T01:10:08;21.63;;;17.85;;
46282;SDS011;32017;43.700;11.820;2022-12-29T01:12:32;17.55;;;16.13;;
46282;SDS011;32017;43.700;11.820;2022-12-29T01:15:03;19.77;;;17.77;;
46282;SDS011;32017;43.700;11.820;2022-12-29T01:17:23;18.75;;;17.08;;
46282;SDS011;32017;43.700;11.820;2022-12-29T01:19:46;19.10;;;17.33;;
46282;SDS011;32017;43.700;11.820;2022-12-29T01:22:06;20.20;;;18.13;;
46282;SDS011;32017;43.700;11.820;2022-12-29T01:24:27;20.42;;;18.65;;
46282;SDS011;32017;43.700;11.820;2022-12-29T01:26:47;21.98;;;18.92;;
46282;SDS011;32017;43.700;11.820;2022-12-29T01:29:07;25.95;;;19.70;;
46282;SDS011;32017;43.700;11.820;2022-12-29T01:31:27;19.17;;;17.38;;
46282;SDS011;32017;43.700;11.820;2022-12-29T01:33:47;20.23;;;18.17;;
46282;SDS011;32017;43.700;11.820;2022-12-29T01:36:08;17.55;;;15.88;;
46282;SDS011;32017;43.700;11.820;2022-12-29T01:38:32;18.42;;;16.73;;
46282;SDS011;32017;43.700;11.820;2022-12-29T01:40:52;17.63;;;16.33;;
46282;SDS011;32017;43.700;11.820;2022-12-29T01:43:13;16.63;;;15.07;;
46282;SDS011;32017;43.700;11.820;2022-12-29T01:45:34;17.50;;;16.08;;
46282;SDS011;32017;43.700;11.820;2022-12-29T01:50:26;14.80;;;13.55;;
46282;SDS011;32017;43.700;11.820;2022-12-29T01:53:00;16.73;;;15.27;;
46282;SDS011;32017;43.700;11.820;2022-12-29T01:55:25;16.50;;;15.20;;
46282;SDS011;32017;43.700;11.820;2022-12-29T02:00:09;14.55;;;13.40;;
46282;SDS011;32017;43.700;11.820;2022-12-29T02:02:32;14.23;;;13.10;;
46282;SDS011;32017;43.700;11.820;2022-12-29T02:04:53;12.88;;;11.88;;
46282;SDS011;32017;43.700;11.820;2022-12-29T02:07:24;15.57;;;13.07;;
46282;SDS011;32017;43.700;11.820;2022-12-29T02:09:47;12.38;;;11.70;;
46282;SDS011;32017;43.700;11.820;2022-12-29T02:12:09;12.90;;;12.10;;
46282;SDS011;32017;43.700;11.820;2022-12-29T02:14:30;14.85;;;13.38;;
46282;SDS011;32017;43.700;11.820;2022-12-29T02:36:23;13.65;;;12.43;;
46282;SDS011;32017;43.700;11.820;2022-12-29T02:38:55;12.07;;;11.13;;
46282;SDS011;32017;43.700;11.820;2022-12-29T02:41:30;14.40;;;13.40;;
46282;SDS011;32017;43.700;11.820;2022-12-29T02:44:14;14.10;;;13.00;;
46282;SDS011;32017;43.700;11.820;2022-12-29T02:52:10;14.45;;;13.35;;
46282;SDS011;32017;43.700;11.820;2022-12-29T02:54:37;15.60;;;14.27;;
46282;SDS011;32017;43.700;11.820;2022-12-29T02:57:02;15.57;;;13.90;;
46282;SDS011;32017;43.700;11.820;2022-12-29T02:59:24;15.77;;;14.02;;
46282;SDS011;32017;43.700;11.820;2022-12-29T03:04:43;17.90;;;16.50;;
46282;SDS011;32017;43.700;11.820;2022-12-29T03:10:34;17.08;;;15.60;;
46282;SDS011;32017;43.700;11.820;2022-12-29T03:16:40;17.88;;;16.65;;
46282;SDS011;32017;43.700;11.820;2022-12-29T03:19:10;17.65;;;16.08;;
46282;SDS011;32017;43.700;11.820;2022-12-29T03:22:08;19.63;;;17.67;;
46282;SDS011;32017;43.700;11.820;2022-12-29T03:24:51;21.58;;;18.85;;
46282;SDS011;32017;43.700;11.820;2022-12-29T03:27:19;20.75;;;18.17;;
46282;SDS011;32017;43.700;11.820;2022-12-29T03:29:46;19.52;;;17.55;;
46282;SDS011;32017;43.700;11.820;2022-12-29T03:32:12;18.65;;;16.75;;
46282;SDS011;32017;43.700;11.820;2022-12-29T03:34:33;19.33;;;17.50;;
46282;SDS011;32017;43.700;11.820;2022-12-29T03:37:06;19.33;;;17.73;;
46282;SDS011;32017;43.700;11.820;2022-12-29T03:39:32;20.50;;;18.52;;
46282;SDS011;32017;43.700;11.820;2022-12-29T03:41:55;22.90;;;20.58;;
46282;SDS011;32017;43.700;11.820;2022-12-29T03:44:22;21.13;;;19.25;;
46282;SDS011;32017;43.700;11.820;2022-12-29T03:46:58;21.83;;;19.83;;
46282;SDS011;32017;43.700;11.820;2022-12-29T03:49:18;21.10;;;19.33;;
46282;SDS011;32017;43.700;11.820;2022-12-29T03:51:38;22.05;;;19.85;;
46282;SDS011;32017;43.700;11.820;2022-12-29T03:53:58;20.35;;;18.60;;
46282;SDS011;32017;43.700;11.820;2022-12-29T03:56:19;21.63;;;19.63;;
46282;SDS011;32017;43.700;11.820;2022-12-29T03:58:38;22.75;;;20.15;;
46282;SDS011;32017;43.700;11.820;2022-12-29T04:00:59;19.58;;;17.58;;
46282;SDS011;32017;43.700;11.820;2022-12-29T04:03:19;19.95;;;18.13;;
46282;SDS011;32017;43.700;11.820;2022-12-29T04:05:39;18.15;;;16.65;;
46282;SDS011;32017;43.700;11.820;2022-12-29T04:07:59;16.05;;;14.95;;
46282;SDS011;32017;43.700;11.820;2022-12-29T04:10:19;16.42;;;15.15;;
46282;SDS011;32017;43.700;11.820;2022-12-29T04:12:38;15.07;;;14.27;;
46282;SDS011;32017;43.700;11.820;2022-12-29T04:15:00;15.43;;;13.90;;
46282;SDS011;32017;43.700;11.820;2022-12-29T04:17:20;15.13;;;14.02;;
46282;SDS011;32017;43.700;11.820;2022-12-29T04:19:40;14.15;;;13.07;;
46282;SDS011;32017;43.700;11.820;2022-12-29T04:22:01;13.25;;;12.52;;
46282;SDS011;32017;43.700;11.820;2022-12-29T04:24:21;15.57;;;13.95;;
46282;SDS011;32017;43.700;11.820;2022-12-29T04:26:41;15.57;;;14.38;;
46282;SDS011;32017;43.700;11.820;2022-12-29T04:29:01;14.93;;;13.57;;
46282;SDS011;32017;43.700;11.820;2022-12-29T04:31:21;14.77;;;13.50;;
46282;SDS011;32017;43.700;11.820;2022-12-29T04:33:41;15.20;;;14.13;;
46282;SDS011;32017;43.700;11.820;2022-12-29T04:36:02;13.50;;;12.40;;
46282;SDS011;32017;43.700;11.820;2022-12-29T04:38:22;13.65;;;12.88;;
46282;SDS011;32017;43.700;11.820;2022-12-29T04:40:43;12.73;;;12.02;;
46282;SDS011;32017;43.700;11.820;2022-12-29T04:43:04;13.32;;;12.38;;
46282;SDS011;32017;43.700;11.820;2022-12-29T04:45:24;13.20;;;12.20;;
46282;SDS011;32017;43.700;11.820;2022-12-29T04:47:43;13.52;;;12.60;;
46282;SDS011;32017;43.700;11.820;2022-12-29T04:50:03;13.25;;;12.23;;
46282;SDS011;32017;43.700;11.820;2022-12-29T04:52:24;14.55;;;13.18;;
46282;SDS011;32017;43.700;11.820;2022-12-29T04:54:44;13.90;;;12.77;;
46282;SDS011;32017;43.700;11.820;2022-12-29T04:57:04;12.70;;;11.90;;
46282;SDS011;32017;43.700;11.820;2022-12-29T04:59:24;12.70;;;11.77;;
46282;SDS011;32017;43.700;11.820;2022-12-29T05:01:44;12.38;;;11.63;;
46282;SDS011;32017;43.700;11.820;2022-12-29T05:04:04;12.18;;;11.20;;
46282;SDS011;32017;43.700;11.820;2022-12-29T05:06:23;11.98;;;11.05;;
46282;SDS011;32017;43.700;11.820;2022-12-29T05:08:43;10.90;;;10.38;;
46282;SDS011;32017;43.700;11.820;2022-12-29T05:11:04;11.60;;;10.73;;
46282;SDS011;32017;43.700;11.820;2022-12-29T05:13:24;12.02;;;11.27;;
46282;SDS011;32017;43.700;11.820;2022-12-29T05:15:50;13.73;;;11.75;;
46282;SDS011;32017;43.700;11.820;2022-12-29T05:18:11;11.95;;;11.27;;
46282;SDS011;32017;43.700;11.820;2022-12-29T05:20:31;10.20;;;9.70;;
46282;SDS011;32017;43.700;11.820;2022-12-29T05:22:51;12.93;;;11.93;;
46282;SDS011;32017;43.700;11.820;2022-12-29T05:25:12;13.35;;;12.27;;
46282;SDS011;32017;43.700;11.820;2022-12-29T05:27:31;11.50;;;10.98;;
46282;SDS011;32017;43.700;11.820;2022-12-29T05:29:52;13.18;;;12.25;;
46282;SDS011;32017;43.700;11.820;2022-12-29T05:32:12;13.93;;;12.82;;
46282;SDS011;32017;43.700;11.820;2022-12-29T05:34:33;14.15;;;13.18;;
46282;SDS011;32017;43.700;11.820;2022-12-29T05:36:53;12.90;;;12.00;;
46282;SDS011;32017;43.700;11.820;2022-12-29T05:39:13;10.85;;;10.25;;
46282;SDS011;32017;43.700;11.820;2022-12-29T05:41:33;13.43;;;12.60;;
46282;SDS011;32017;43.700;11.820;2022-12-29T05:43:53;13.05;;;12.10;;
46282;SDS011;32017;43.700;11.820;2022-12-29T05:46:13;12.00;;;10.48;;
46282;SDS011;32017;43.700;11.820;2022-12-29T05:48:33;10.40;;;9.85;;
46282;SDS011;32017;43.700;11.820;2022-12-29T05:53:16;10.48;;;9.93;;
46282;SDS011;32017;43.700;11.820;2022-12-29T05:55:37;9.55;;;8.85;;
46282;SDS011;32017;43.700;11.820;2022-12-29T05:58:03;8.93;;;8.32;;
46282;SDS011;32017;43.700;11.820;2022-12-29T06:00:24;10.57;;;10.10;;
46282;SDS011;32017;43.700;11.820;2022-12-29T06:02:44;9.15;;;8.95;;
46282;SDS011;32017;43.700;11.820;2022-12-29T06:05:04;9.00;;;8.25;;
46282;SDS011;32017;43.700;11.820;2022-12-29T06:07:24;10.00;;;9.38;;
46282;SDS011;32017;43.700;11.820;2022-12-29T06:09:44;9.27;;;8.50;;
46282;SDS011;32017;43.700;11.820;2022-12-29T06:12:04;12.10;;;8.27;;
46282;SDS011;32017;43.700;11.820;2022-12-29T06:14:24;10.00;;;9.23;;
46282;SDS011;32017;43.700;11.820;2022-12-29T06:16:46;8.45;;;7.85;;
46282;SDS011;32017;43.700;11.820;2022-12-29T06:19:07;8.73;;;8.52;;
46282;SDS011;32017;43.700;11.820;2022-12-29T06:21:27;8.43;;;7.97;;
46282;SDS011;32017;43.700;11.820;2022-12-29T06:23:47;9.15;;;8.38;;
46282;SDS011;32017;43.700;11.820;2022-12-29T06:26:07;9.32;;;9.10;;
46282;SDS011;32017;43.700;11.820;2022-12-29T06:28:27;9.25;;;8.57;;
46282;SDS011;32017;43.700;11.820;2022-12-29T06:30:47;8.57;;;7.97;;
46282;SDS011;32017;43.700;11.820;2022-12-29T06:33:07;8.70;;;8.20;;
46282;SDS011;32017;43.700;11.820;2022-12-29T06:35:27;8.32;;;7.82;;
46282;SDS011;32017;43.700;11.820;2022-12-29T06:37:47;10.20;;;9.27;;
46282;SDS011;32017;43.700;11.820;2022-12-29T06:40:08;8.77;;;8.23;;
46282;SDS011;32017;43.700;11.820;2022-12-29T06:42:28;10.18;;;9.55;;
46282;SDS011;32017;43.700;11.820;2022-12-29T06:44:48;8.88;;;8.48;;
46282;SDS011;32017;43.700;11.820;2022-12-29T06:47:09;13.18;;;10.07;;
46282;SDS011;32017;43.700;11.820;2022-12-29T06:49:29;11.57;;;10.73;;
46282;SDS011;32017;43.700;11.820;2022-12-29T06:51:48;10.82;;;10.20;;
46282;SDS011;32017;43.700;11.820;2022-12-29T06:54:08;11.10;;;10.25;;
46282;SDS011;32017;43.700;11.820;2022-12-29T06:56:28;15.27;;;13.93;;
46282;SDS011;32017;43.700;11.820;2022-12-29T06:58:48;12.23;;;11.50;;
46282;SDS011;32017;43.700;11.820;2022-12-29T07:01:08;13.48;;;12.40;;
46282;SDS011;32017;43.700;11.820;2022-12-29T07:03:28;13.30;;;12.23;;
46282;SDS011;32017;43.700;11.820;2022-12-29T07:05:49;15.48;;;14.32;;
46282;SDS011;32017;43.700;11.820;2022-12-29T07:08:08;14.25;;;13.32;;
46282;SDS011;32017;43.700;11.820;2022-12-29T07:10:28;13.38;;;12.25;;
46282;SDS011;32017;43.700;11.820;2022-12-29T07:12:48;13.00;;;12.23;;
46282;SDS011;32017;43.700;11.820;2022-12-29T07:15:09;17.90;;;14.38;;
46282;SDS011;32017;43.700;11.820;2022-12-29T07:17:29;14.57;;;13.73;;
46282;SDS011;32017;43.700;11.820;2022-12-29T07:19:49;16.33;;;13.40;;
46282;SDS011;32017;43.700;11.820;2022-12-29T07:22:09;16.27;;;14.05;;
46282;SDS011;32017;43.700;11.820;2022-12-29T07:24:29;15.10;;;13.95;;
46282;SDS011;32017;43.700;11.820;2022-12-29T07:26:48;14.98;;;13.88;;
46282;SDS011;32017;43.700;11.820;2022-12-29T07:29:08;15.30;;;14.23;;
46282;SDS011;32017;43.700;11.820;2022-12-29T07:31:28;14.40;;;13.30;;
46282;SDS011;32017;43.700;11.820;2022-12-29T07:33:49;15.77;;;14.52;;
46282;SDS011;32017;43.700;11.820;2022-12-29T07:36:10;15.20;;;13.63;;
46282;SDS011;32017;43.700;11.820;2022-12-29T07:38:31;14.52;;;13.43;;
46282;SDS011;32017;43.700;11.820;2022-12-29T07:40:50;13.57;;;12.63;;
46282;SDS011;32017;43.700;11.820;2022-12-29T07:43:10;14.07;;;13.25;;
46282;SDS011;32017;43.700;11.820;2022-12-29T07:45:30;15.10;;;14.05;;
46282;SDS011;32017;43.700;11.820;2022-12-29T07:47:50;13.40;;;12.50;;
46282;SDS011;32017;43.700;11.820;2022-12-29T07:50:10;12.95;;;11.68;;
46282;SDS011;32017;43.700;11.820;2022-12-29T07:52:30;14.10;;;13.02;;
46282;SDS011;32017;43.700;11.820;2022-12-29T07:54:50;13.15;;;12.40;;
46282;SDS011;32017;43.700;11.820;2022-12-29T07:57:10;13.98;;;12.98;;
46282;SDS011;32017;43.700;11.820;2022-12-29T07:59:30;11.85;;;11.35;;
46282;SDS011;32017;43.700;11.820;2022-12-29T08:01:50;11.48;;;10.98;;
46282;SDS011;32017;43.700;11.820;2022-12-29T08:04:10;10.85;;;10.15;;
46282;SDS011;32017;43.700;11.820;2022-12-29T08:06:31;10.88;;;10.07;;
46282;SDS011;32017;43.700;11.820;2022-12-29T08:08:52;11.00;;;10.05;;
46282;SDS011;32017;43.700;11.820;2022-12-29T08:11:12;12.38;;;11.68;;
46282;SDS011;32017;43.700;11.820;2022-12-29T08:13:32;9.93;;;9.30;;
46282;SDS011;32017;43.700;11.820;2022-12-29T08:15:52;14.50;;;9.85;;
46282;SDS011;32017;43.700;11.820;2022-12-29T08:18:12;10.30;;;9.70;;
46282;SDS011;32017;43.700;11.820;2022-12-29T08:20:33;9.27;;;8.90;;
46282;SDS011;32017;43.700;11.820;2022-12-29T08:22:53;9.55;;;8.85;;
46282;SDS011;32017;43.700;11.820;2022-12-29T08:25:13;11.35;;;10.63;;
46282;SDS011;32017;43.700;11.820;2022-12-29T08:27:33;10.48;;;9.70;;
46282;SDS011;32017;43.700;11.820;2022-12-29T08:29:53;10.32;;;9.68;;
46282;SDS011;32017;43.700;11.820;2022-12-29T08:32:13;10.35;;;9.85;;
46282;SDS011;32017;43.700;11.820;2022-12-29T08:34:33;9.20;;;8.25;;
46282;SDS011;32017;43.700;11.820;2022-12-29T08:36:54;9.20;;;8.52;;
46282;SDS011;32017;43.700;11.820;2022-12-29T08:39:13;9.32;;;8.85;;
46282;SDS011;32017;43.700;11.820;2022-12-29T08:41:33;7.53;;;7.22;;
46282;SDS011;32017;43.700;11.820;2022-12-29T08:43:53;8.38;;;8.00;;
46282;SDS011;32017;43.700;11.820;2022-12-29T08:46:13;8.60;;;7.88;;
46282;SDS011;32017;43.700;11.820;2022-12-29T08:48:34;8.38;;;8.07;;
46282;SDS011;32017;43.700;11.820;2022-12-29T08:50:54;8.95;;;8.35;;
46282;SDS011;32017;43.700;11.820;2022-12-29T08:53:14;9.15;;;8.40;;
46282;SDS011;32017;43.700;11.820;2022-12-29T08:55:34;9.65;;;9.05;;
46282;SDS011;32017;43.700;11.820;2022-12-29T08:57:54;9.05;;;8.32;;
46282;SDS011;32017;43.700;11.820;2022-12-29T09:00:14;8.48;;;7.93;;
46282;SDS011;32017;43.700;11.820;2022-12-29T09:02:34;8.77;;;8.05;;
46282;SDS011;32017;43.700;11.820;2022-12-29T09:04:54;8.15;;;7.55;;
46282;SDS011;32017;43.700;11.820;2022-12-29T09:07:16;9.13;;;8.27;;
46282;SDS011;32017;43.700;11.820;2022-12-29T09:09:36;8.27;;;7.65;;
46282;SDS011;32017;43.700;11.820;2022-12-29T09:11:56;7.95;;;7.38;;
46282;SDS011;32017;43.700;11.820;2022-12-29T09:14:16;9.38;;;8.63;;
46282;SDS011;32017;43.700;11.820;2022-12-29T09:16:36;8.73;;;8.23;;
46282;SDS011;32017;43.700;11.820;2022-12-29T09:18:56;8.77;;;8.38;;
46282;SDS011;32017;43.700;11.820;2022-12-29T09:21:16;8.52;;;8.13;;
46282;SDS011;32017;43.700;11.820;2022-12-29T09:23:36;8.85;;;8.23;;
46282;SDS011;32017;43.700;11.820;2022-12-29T09:25:57;9.88;;;9.10;;
46282;SDS011;32017;43.700;11.820;2022-12-29T09:28:17;8.73;;;8.23;;
46282;SDS011;32017;43.700;11.820;2022-12-29T09:30:37;10.32;;;9.38;;
46282;SDS011;32017;43.700;11.820;2022-12-29T09:32:58;8.05;;;7.60;;
46282;SDS011;32017;43.700;11.820;2022-12-29T09:35:18;7.25;;;6.97;;
46282;SDS011;32017;43.700;11.820;2022-12-29T09:37:39;6.47;;;6.13;;
46282;SDS011;32017;43.700;11.820;2022-12-29T09:39:58;7.55;;;7.13;;
46282;SDS011;32017;43.700;11.820;2022-12-29T09:42:19;6.80;;;6.53;;
46282;SDS011;32017;43.700;11.820;2022-12-29T09:44:48;8.45;;;7.95;;
46282;SDS011;32017;43.700;11.820;2022-12-29T09:47:23;8.60;;;8.30;;
46282;SDS011;32017;43.700;11.820;2022-12-29T09:49:46;7.80;;;7.35;;
46282;SDS011;32017;43.700;11.820;2022-12-29T09:52:15;8.13;;;7.63;;
46282;SDS011;32017;43.700;11.820;2022-12-29T09:57:34;8.10;;;7.70;;
46282;SDS011;32017;43.700;11.820;2022-12-29T10:00:03;7.22;;;6.70;;
46282;SDS011;32017;43.700;11.820;2022-12-29T10:10:37;7.00;;;6.70;;
46282;SDS011;32017;43.700;11.820;2022-12-29T10:13:04;8.75;;;8.00;;
46282;SDS011;32017;43.700;11.820;2022-12-29T10:21:08;6.72;;;6.43;;
46282;SDS011;32017;43.700;11.820;2022-12-29T10:23:52;7.80;;;7.47;;
46282;SDS011;32017;43.700;11.820;2022-12-29T10:29:03;8.00;;;7.43;;
46282;SDS011;32017;43.700;11.820;2022-12-29T10:31:29;6.70;;;6.38;;
46282;SDS011;32017;43.700;11.820;2022-12-29T10:34:02;7.32;;;6.82;;
46282;SDS011;32017;43.700;11.820;2022-12-29T10:36:39;6.65;;;6.25;;
46282;SDS011;32017;43.700;11.820;2022-12-29T10:41:54;8.60;;;7.80;;
46282;SDS011;32017;43.700;11.820;2022-12-29T10:44:34;7.13;;;6.38;;
46282;SDS011;32017;43.700;11.820;2022-12-29T10:46:56;8.30;;;7.40;;
46282;SDS011;32017;43.700;11.820;2022-12-29T10:49:20;7.03;;;6.50;;
46282;SDS011;32017;43.700;11.820;2022-12-29T10:51:42;6.60;;;6.30;;
46282;SDS011;32017;43.700;11.820;2022-12-29T10:54:14;7.00;;;6.75;;
46282;SDS011;32017;43.700;11.820;2022-12-29T10:56:36;7.20;;;6.70;;
46282;SDS011;32017;43.700;11.820;2022-12-29T10:59:01;8.02;;;7.50;;
46282;SDS011;32017;43.700;11.820;2022-12-29T11:01:44;7.65;;;7.15;;
46282;SDS011;32017;43.700;11.820;2022-12-29T11:07:07;6.53;;;6.05;;
46282;SDS011;32017;43.700;11.820;2022-12-29T11:09:35;8.75;;;8.05;;
46282;SDS011;32017;43.700;11.820;2022-12-29T11:12:18;8.13;;;7.82;;
46282;SDS011;32017;43.700;11.820;2022-12-29T11:14:46;8.50;;;7.90;;
46282;SDS011;32017;43.700;11.820;2022-12-29T11:17:09;9.35;;;8.65;;
46282;SDS011;32017;43.700;11.820;2022-12-29T11:19:34;7.97;;;7.65;;
46282;SDS011;32017;43.700;11.820;2022-12-29T11:22:13;6.63;;;6.32;;
46282;SDS011;32017;43.700;11.820;2022-12-29T11:24:45;8.00;;;7.43;;
46282;SDS011;32017;43.700;11.820;2022-12-29T11:27:25;7.50;;;7.20;;
46282;SDS011;32017;43.700;11.820;2022-12-29T11:29:45;7.07;;;6.70;;
46282;SDS011;32017;43.700;11.820;2022-12-29T11:32:19;9.23;;;8.50;;
46282;SDS011;32017;43.700;11.820;2022-12-29T11:34:48;12.70;;;9.55;;
46282;SDS011;32017;43.700;11.820;2022-12-29T11:37:13;6.95;;;6.50;;
46282;SDS011;32017;43.700;11.820;2022-12-29T11:39:35;8.00;;;7.47;;
46282;SDS011;32017;43.700;11.820;2022-12-29T11:41:59;7.85;;;7.35;;
46282;SDS011;32017;43.700;11.820;2022-12-29T11:44:22;7.05;;;6.72;;
46282;SDS011;32017;43.700;11.820;2022-12-29T11:46:42;6.30;;;6.00;;
46282;SDS011;32017;43.700;11.820;2022-12-29T11:49:10;6.60;;;6.25;;
46282;SDS011;32017;43.700;11.820;2022-12-29T11:51:42;6.03;;;5.90;;
46282;SDS011;32017;43.700;11.820;2022-12-29T11:54:04;8.68;;;7.85;;
46282;SDS011;32017;43.700;11.820;2022-12-29T11:56:36;7.95;;;7.57;;
46282;SDS011;32017;43.700;11.820;2022-12-29T12:01:59;10.48;;;9.90;;
46282;SDS011;32017;43.700;11.820;2022-12-29T12:04:40;7.45;;;7.05;;
46282;SDS011;32017;43.700;11.820;2022-12-29T12:09:33;7.82;;;7.13;;
46282;SDS011;32017;43.700;11.820;2022-12-29T12:11:58;6.03;;;5.82;;
46282;SDS011;32017;43.700;11.820;2022-12-29T12:16:46;7.30;;;6.28;;
46282;SDS011;32017;43.700;11.820;2022-12-29T12:21:47;6.75;;;6.25;;
46282;SDS011;32017;43.700;11.820;2022-12-29T12:29:25;5.88;;;5.38;;
46282;SDS011;32017;43.700;11.820;2022-12-29T12:31:57;5.10;;;4.90;;
46282;SDS011;32017;43.700;11.820;2022-12-29T12:37:06;5.75;;;5.20;;
46282;SDS011;32017;43.700;11.820;2022-12-29T12:45:52;7.95;;;6.43;;
46282;SDS011;32017;43.700;11.820;2022-12-29T12:48:44;5.80;;;5.60;;
46282;SDS011;32017;43.700;11.820;2022-12-29T12:51:20;5.93;;;5.57;;
46282;SDS011;32017;43.700;11.820;2022-12-29T13:30:08;5.28;;;4.97;;
46282;SDS011;32017;43.700;11.820;2022-12-29T13:32:36;5.13;;;4.93;;
46282;SDS011;32017;43.700;11.820;2022-12-29T13:37:55;4.65;;;4.43;;
46282;SDS011;32017;43.700;11.820;2022-12-29T13:40:26;6.28;;;5.97;;
46282;SDS011;32017;43.700;11.820;2022-12-29T13:42:52;6.63;;;6.18;;
46282;SDS011;32017;43.700;11.820;2022-12-29T13:45:19;8.07;;;6.60;;
46282;SDS011;32017;43.700;11.820;2022-12-29T13:50:19;5.93;;;5.53;;
46282;SDS011;32017;43.700;11.820;2022-12-29T13:55:20;7.82;;;7.10;;
46282;SDS011;32017;43.700;11.820;2022-12-29T13:57:50;7.65;;;6.88;;
46282;SDS011;32017;43.700;11.820;2022-12-29T14:00:18;5.20;;;4.97;;
46282;SDS011;32017;43.700;11.820;2022-12-29T14:05:43;6.10;;;5.57;;
46282;SDS011;32017;43.700;11.820;2022-12-29T14:07:44;6.90;;;6.50;;
46282;SDS011;32017;43.700;11.820;2022-12-29T14:10:05;7.10;;;4.72;;
46282;SDS011;32017;43.700;11.820;2022-12-29T14:12:36;5.70;;;5.38;;
46282;SDS011;32017;43.700;11.820;2022-12-29T14:17:31;3.95;;;3.75;;
46282;SDS011;32017;43.700;11.820;2022-12-29T14:19:52;8.32;;;5.30;;
46282;SDS011;32017;43.700;11.820;2022-12-29T14:22:13;6.60;;;6.13;;
46282;SDS011;32017;43.700;11.820;2022-12-29T14:24:52;8.40;;;6.43;;
46282;SDS011;32017;43.700;11.820;2022-12-29T14:31:58;4.63;;;4.22;;
46282;SDS011;32017;43.700;11.820;2022-12-29T14:37:02;4.70;;;3.60;;
46282;SDS011;32017;43.700;11.820;2022-12-29T14:39:41;5.30;;;3.92;;
46282;SDS011;32017;43.700;11.820;2022-12-29T14:42:04;4.82;;;3.95;;
46282;SDS011;32017;43.700;11.820;2022-12-29T14:44:27;4.20;;;4.10;;
46282;SDS011;32017;43.700;11.820;2022-12-29T14:49:16;3.53;;;2.90;;
46282;SDS011;32017;43.700;11.820;2022-12-29T14:51:39;5.22;;;4.35;;
46282;SDS011;32017;43.700;11.820;2022-12-29T14:53:59;7.25;;;6.80;;
46282;SDS011;32017;43.700;11.820;2022-12-29T14:56:20;4.22;;;3.60;;
46282;SDS011;32017;43.700;11.820;2022-12-29T15:01:05;7.03;;;4.95;;
46282;SDS011;32017;43.700;11.820;2022-12-29T15:03:45;6.72;;;5.22;;
46282;SDS011;32017;43.700;11.820;2022-12-29T15:06:12;3.92;;;3.72;;
46282;SDS011;32017;43.700;11.820;2022-12-29T15:08:39;3.75;;;3.58;;
46282;SDS011;32017;43.700;11.820;2022-12-29T15:11:10;4.75;;;3.30;;
46282;SDS011;32017;43.700;11.820;2022-12-29T15:13:38;5.57;;;5.13;;
46282;SDS011;32017;43.700;11.820;2022-12-29T15:16:00;5.80;;;5.30;;
46282;SDS011;32017;43.700;11.820;2022-12-29T15:20:50;3.95;;;3.75;;
46282;SDS011;32017;43.700;11.820;2022-12-29T15:23:13;3.33;;;2.03;;
46282;SDS011;32017;43.700;11.820;2022-12-29T15:25:34;3.47;;;3.28;;
46282;SDS011;32017;43.700;11.820;2022-12-29T15:28:05;3.97;;;3.63;;
46282;SDS011;32017;43.700;11.820;2022-12-29T15:30:26;4.68;;;4.28;;
46282;SDS011;32017;43.700;11.820;2022-12-29T15:32:47;2.83;;;2.72;;
46282;SDS011;32017;43.700;11.820;2022-12-29T15:37:54;3.22;;;2.92;;
46282;SDS011;32017;43.700;11.820;2022-12-29T15:40:26;3.80;;;2.63;;
46282;SDS011;32017;43.700;11.820;2022-12-29T15:45:15;3.97;;;3.78;;
46282;SDS011;32017;43.700;11.820;2022-12-29T15:47:35;4.07;;;3.97;;
46282;SDS011;32017;43.700;11.820;2022-12-29T15:50:06;4.53;;;4.43;;
46282;SDS011;32017;43.700;11.820;2022-12-29T15:52:33;3.95;;;3.72;;
46282;SDS011;32017;43.700;11.820;2022-12-29T15:54:54;2.95;;;2.80;;
46282;SDS011;32017;43.700;11.820;2022-12-29T15:57:25;4.05;;;3.80;;
46282;SDS011;32017;43.700;11.820;2022-12-29T15:59:46;5.53;;;4.97;;
46282;SDS011;32017;43.700;11.820;2022-12-29T16:02:07;3.90;;;3.17;;
46282;SDS011;32017;43.700;11.820;2022-12-29T16:04:31;4.82;;;4.53;;
46282;SDS011;32017;43.700;11.820;2022-12-29T16:07:26;3.70;;;3.50;;
46282;SDS011;32017;43.700;11.820;2022-12-29T16:09:48;3.58;;;2.92;;
46282;SDS011;32017;43.700;11.820;2022-12-29T16:12:21;3.25;;;2.85;;
46282;SDS011;32017;43.700;11.820;2022-12-29T16:14:45;9.77;;;4.80;;
46282;SDS011;32017;43.700;11.820;2022-12-29T16:17:28;4.10;;;3.30;;
46282;SDS011;32017;43.700;11.820;2022-12-29T16:19:59;3.88;;;3.58;;
46282;SDS011;32017;43.700;11.820;2022-12-29T16:24:54;4.30;;;3.97;;
46282;SDS011;32017;43.700;11.820;2022-12-29T16:27:29;3.25;;;3.15;;
46282;SDS011;32017;43.700;11.820;2022-12-29T16:29:55;3.70;;;3.05;;
46282;SDS011;32017;43.700;11.820;2022-12-29T16:32:22;3.60;;;3.42;;
46282;SDS011;32017;43.700;11.820;2022-12-29T16:34:45;2.90;;;2.80;;
46282;SDS011;32017;43.700;11.820;2022-12-29T16:39:49;5.65;;;3.60;;
46282;SDS011;32017;43.700;11.820;2022-12-29T16:44:56;5.85;;;5.43;;
46282;SDS011;32017;43.700;11.820;2022-12-29T16:47:43;3.75;;;3.65;;
46282;SDS011;32017;43.700;11.820;2022-12-29T16:50:11;3.67;;;3.53;;
46282;SDS011;32017;43.700;11.820;2022-12-29T16:52:35;3.28;;;3.22;;